Time;durP1;ratioP1;P1;durP2;ratioP2;P2;SDS_P1;SDS_P2;PMS_P1;PMS_P2;Temp;Humidity;BMP_temperature;BMP_pressure;BME280_temperature;BME280_humidity;BME280_pressure;Samples;Min_cycle;Max_cycle;Signal;HPM_P1;HPM_P2
2023/07/06 00:01:06;;;;;;;10.55;6.25;;;27.40;99.90;;;;;;1891324;75;21358;-82
2023/07/06 00:03:39;;;;;;;9.53;6.70;;;27.40;99.90;;;;;;1925196;74;21116;-81
2023/07/06 00:06:17;;;;;;;13.32;6.65;;;27.40;99.90;;;;;;1918631;74;21081;-82
2023/07/06 00:08:52;;;;;;;14.43;6.75;;;27.40;99.90;;;;;;1910490;75;21117;-82
2023/07/06 00:11:29;;;;;;;11.57;6.78;;;27.40;99.90;;;;;;1905696;75;21134;-82
2023/07/06 00:14:07;;;;;;;14.20;6.72;;;27.40;99.90;;;;;;1907050;75;21070;-82
2023/07/06 00:16:42;;;;;;;11.10;5.83;;;27.50;99.90;;;;;;1904606;75;21180;-82
2023/07/06 00:19:19;;;;;;;12.28;6.15;;;27.50;99.90;;;;;;1901155;73;21168;-84
2023/07/06 00:21:52;;;;;;;10.28;6.10;;;27.50;99.90;;;;;;1902783;75;21125;-85
2023/07/06 00:24:33;;;;;;;13.40;6.58;;;27.60;99.90;;;;;;1908496;75;21764;-83
2023/07/06 00:27:26;;;;;;;11.30;5.47;;;27.70;99.90;;;;;;1894523;75;21089;-79
2023/07/06 00:30:18;;;;;;;15.15;6.58;;;27.70;99.90;;;;;;1892854;74;21138;-69
2023/07/06 00:32:51;;;;;;;11.12;5.70;;;27.80;99.90;;;;;;1895045;73;21070;-67
2023/07/06 00:35:24;;;;;;;9.85;5.78;;;27.80;99.90;;;;;;1936340;73;21182;-67
2023/07/06 00:37:58;;;;;;;13.98;5.50;;;27.90;99.90;;;;;;1943121;73;21621;-69
2023/07/06 00:40:33;;;;;;;9.40;5.83;;;27.90;99.90;;;;;;1946546;72;21130;-69
2023/07/06 00:43:07;;;;;;;13.75;5.72;;;28.00;99.90;;;;;;1950561;72;21643;-67
2023/07/06 00:45:42;;;;;;;12.23;5.50;;;28.00;99.90;;;;;;1942222;72;21065;-67
2023/07/06 00:48:37;;;;;;;9.10;5.28;;;28.10;99.90;;;;;;1937580;73;21207;-69
2023/07/06 00:51:17;;;;;;;14.45;6.87;;;28.20;99.90;;;;;;1942139;73;21220;-67
2023/07/06 00:53:56;;;;;;;10.85;6.60;;;28.20;99.90;;;;;;1932942;72;21064;-69
2023/07/06 00:56:31;;;;;;;11.88;5.83;;;28.30;99.90;;;;;;1943285;73;21619;-67
2023/07/06 00:59:07;;;;;;;11.45;6.30;;;28.40;99.90;;;;;;1910851;74;21050;-67
2023/07/06 01:01:46;;;;;;;11.93;5.60;;;28.40;99.90;;;;;;1906000;74;21571;-69
2023/07/06 01:04:20;;;;;;;;;;;28.50;99.90;;;;;;1935266;73;21209;-69
2023/07/06 01:06:55;;;;;;;10.03;5.05;;;28.60;99.90;;;;;;1931768;73;20137;-67
2023/07/06 01:09:29;;;;;;;11.55;5.55;;;28.60;99.90;;;;;;1936080;73;21155;-69
2023/07/06 01:12:04;;;;;;;11.22;5.55;;;28.70;99.90;;;;;;1949618;72;21133;-70
2023/07/06 01:14:38;;;;;;;8.93;5.67;;;28.70;99.90;;;;;;1947277;72;21590;-69
2023/07/06 01:17:25;;;;;;;14.65;5.58;;;28.80;99.90;;;;;;1922617;73;21138;-67
2023/07/06 01:20:14;;;;;;;9.15;4.70;;;28.90;99.90;;;;;;1942355;73;21108;-66
2023/07/06 01:22:59;;;;;;;12.95;5.67;;;29.00;99.90;;;;;;1896470;74;21134;-69
2023/07/06 01:26:00;;;;;;;9.98;4.97;;;29.10;99.90;;;;;;1937222;73;21146;-67
2023/07/06 01:28:38;;;;;;;19.20;5.55;;;29.20;99.90;;;;;;1921028;74;21681;-68
2023/07/06 01:31:20;;;;;;;9.00;5.17;;;29.30;99.90;;;;;;1875188;75;21447;-67
2023/07/06 01:34:01;;;;;;;8.73;5.30;;;29.30;99.90;;;;;;1909491;75;21074;-68
2023/07/06 01:36:39;;;;;;;12.20;5.67;;;29.40;99.90;;;;;;1850903;77;21111;-69
2023/07/06 01:39:26;;;;;;;9.68;4.42;;;29.50;99.90;;;;;;1869333;76;21081;-68
2023/07/06 01:42:15;;;;;;;9.98;4.75;;;29.60;99.90;;;;;;1872570;75;21120;-69
2023/07/06 01:44:48;;;;;;;16.25;5.67;;;29.70;99.90;;;;;;1865986;76;21548;-68
2023/07/06 01:47:24;;;;;;;14.28;5.37;;;29.80;99.90;;;;;;1862012;77;21127;-68
2023/07/06 01:50:01;;;;;;;11.30;5.03;;;29.90;99.90;;;;;;1859278;77;21179;-65
2023/07/06 01:52:50;;;;;;;14.95;5.40;;;30.00;99.90;;;;;;1873735;75;21119;-67
2023/07/06 01:55:40;;;;;;;9.98;4.85;;;30.10;99.90;;;;;;1884677;74;21674;-68
2023/07/06 01:58:37;;;;;;;19.02;5.08;;;30.10;99.90;;;;;;1886378;74;21137;-69
2023/07/06 02:01:15;;;;;;;7.35;3.83;;;30.20;99.90;;;;;;1901433;75;21130;-67
2023/07/06 02:03:51;;;;;;;7.30;3.60;;;30.20;99.90;;;;;;1905362;73;21131;-67
2023/07/06 02:06:24;;;;;;;10.13;4.10;;;30.30;99.90;;;;;;1878284;75;21555;-67
2023/07/06 02:08:58;;;;;;;22.40;5.95;;;30.40;99.90;;;;;;1913855;73;21123;-67
2023/07/06 02:11:34;;;;;;;;;;;30.50;99.90;;;;;;1915710;73;21218;-66
2023/07/06 02:14:09;;;;;;;8.15;3.20;;;30.60;99.90;;;;;;1922424;73;20193;-66
2023/07/06 02:16:44;;;;;;;22.87;4.83;;;30.60;99.90;;;;;;1909287;75;21236;-67
2023/07/06 02:19:16;;;;;;;6.12;3.17;;;30.70;99.90;;;;;;1872079;76;21131;-67
2023/07/06 02:21:53;;;;;;;6.72;2.80;;;30.80;99.90;;;;;;1867099;76;21163;-69
2023/07/06 02:24:32;;;;;;;6.62;3.20;;;30.80;99.90;;;;;;1915221;73;21250;-67
2023/07/06 02:27:05;;;;;;;13.20;4.03;;;30.90;99.90;;;;;;1913053;73;21153;-67
2023/07/06 02:29:41;;;;;;;8.50;3.27;;;31.00;99.90;;;;;;1887377;75;22189;-67
2023/07/06 02:32:15;;;;;;;10.95;4.08;;;31.00;99.90;;;;;;1913515;73;21148;-69
2023/07/06 02:34:54;;;;;;;9.13;3.35;;;31.10;99.90;;;;;;1955946;72;21151;-72
2023/07/06 02:37:26;;;;;;;9.50;3.92;;;31.20;99.90;;;;;;1956674;72;21052;-70
2023/07/06 02:40:00;;;;;;;9.08;3.30;;;31.30;99.90;;;;;;1954795;72;21072;-69
2023/07/06 02:42:34;;;;;;;7.40;3.42;;;31.40;99.90;;;;;;1954523;72;21679;-69
2023/07/06 02:45:09;;;;;;;6.72;3.08;;;31.40;99.80;;;;;;1963712;72;21137;-71
2023/07/06 02:47:46;;;;;;;14.15;4.17;;;31.40;99.90;;;;;;1959778;72;21210;-67
2023/07/06 02:50:29;;;;;;;22.48;6.92;;;31.50;99.90;;;;;;1957183;72;21062;-67
2023/07/06 02:53:03;;;;;;;11.30;4.20;;;31.60;99.80;;;;;;1961342;72;21099;-68
2023/07/06 02:55:37;;;;;;;17.17;4.30;;;31.70;99.90;;;;;;1956269;72;21093;-67
2023/07/06 02:58:09;;;;;;;23.75;7.53;;;31.80;99.70;;;;;;1956100;72;21190;-67
2023/07/06 03:00:42;;;;;;;11.48;3.72;;;31.90;99.30;;;;;;1948338;72;21154;-68
2023/07/06 03:03:18;;;;;;;18.42;5.33;;;32.00;99.80;;;;;;1958387;72;21140;-68
2023/07/06 03:05:50;;;;;;;10.08;3.60;;;32.00;98.70;;;;;;1916161;73;21534;-68
2023/07/06 03:08:24;;;;;;;14.28;3.62;;;32.00;98.80;;;;;;1955722;72;21127;-67
2023/07/06 03:10:58;;;;;;;7.10;2.65;;;32.00;98.40;;;;;;1954092;72;21136;-69
2023/07/06 03:13:32;;;;;;;19.42;5.15;;;32.10;98.00;;;;;;1955989;72;21151;-67
2023/07/06 03:16:07;;;;;;;10.40;3.70;;;32.10;98.30;;;;;;1952561;72;21131;-69
2023/07/06 03:18:41;;;;;;;15.50;3.40;;;32.20;98.00;;;;;;1956151;72;21114;-67
2023/07/06 03:21:15;;;;;;;21.15;5.05;;;32.30;98.30;;;;;;1960435;72;21114;-68
2023/07/06 03:23:49;;;;;;;10.10;3.15;;;32.30;98.10;;;;;;1955638;72;21131;-68
2023/07/06 03:26:24;;;;;;;6.22;2.60;;;32.40;98.10;;;;;;1954666;73;21517;-67
2023/07/06 03:28:56;;;;;;;9.93;3.02;;;32.40;97.60;;;;;;1957307;72;21162;-67
2023/07/06 03:31:30;;;;;;;15.23;3.42;;;32.40;97.60;;;;;;1919652;72;21098;-69
2023/07/06 03:34:06;;;;;;;8.93;2.95;;;32.40;97.40;;;;;;1917697;73;21625;-68
2023/07/06 03:36:38;;;;;;;8.23;3.15;;;32.40;97.90;;;;;;1917543;73;21091;-67
2023/07/06 03:39:12;;;;;;;11.00;3.80;;;32.40;97.70;;;;;;1911600;74;21080;-67
2023/07/06 03:41:44;;;;;;;16.57;4.83;;;32.40;98.10;;;;;;1909973;73;21590;-67
2023/07/06 03:44:21;;;;;;;11.65;3.70;;;32.50;98.20;;;;;;1918137;73;21056;-68
2023/07/06 03:46:52;;;;;;;8.75;3.27;;;32.50;97.60;;;;;;1909218;73;21119;-69
2023/07/06 03:49:25;;;;;;;10.45;2.67;;;32.50;97.60;;;;;;1914488;73;21692;-68
2023/07/06 03:51:58;;;;;;;8.48;2.85;;;32.40;97.50;;;;;;1910804;73;21129;-68
2023/07/06 03:54:31;;;;;;;5.85;2.83;;;32.60;97.20;;;;;;1896209;74;21190;-69
2023/07/06 03:57:05;;;;;;;9.43;3.52;;;32.60;97.70;;;;;;1905042;74;21163;-69
2023/07/06 03:59:42;;;;;;;8.70;3.47;;;32.80;97.50;;;;;;1928381;73;21112;-69
2023/07/06 04:02:15;;;;;;;5.10;3.05;;;32.90;97.10;;;;;;1928215;73;21069;-69
2023/07/06 04:04:48;;;;;;;7.55;2.92;;;32.90;96.70;;;;;;1924383;73;21137;-68
2023/07/06 04:07:22;;;;;;;6.22;2.30;;;32.90;96.80;;;;;;1920900;73;21190;-68
2023/07/06 04:09:56;;;;;;;6.15;2.62;;;32.90;96.10;;;;;;1927442;73;21152;-69
2023/07/06 04:12:37;;;;;;;6.10;2.67;;;32.90;95.80;;;;;;1931335;73;21222;-69
2023/07/06 04:15:10;;;;;;;7.28;2.70;;;32.80;96.40;;;;;;1939446;73;21090;-68
2023/07/06 04:17:44;;;;;;;49.70;8.58;;;32.90;96.30;;;;;;1937947;73;21105;-68
2023/07/06 04:20:20;;;;;;;10.13;3.67;;;33.00;95.80;;;;;;1926573;73;21154;-68
2023/07/06 04:22:59;;;;;;;5.33;2.98;;;33.10;96.40;;;;;;1920945;73;21141;-69
2023/07/06 04:25:34;;;;;;;10.50;3.22;;;33.20;95.50;;;;;;1931151;73;21184;-68
2023/07/06 04:28:08;;;;;;;5.17;2.60;;;33.10;95.30;;;;;;1926261;73;21619;-67
2023/07/06 04:30:44;;;;;;;10.93;2.98;;;33.10;95.20;;;;;;1925918;73;21057;-68
2023/07/06 04:33:19;;;;;;;;;;;32.90;96.10;;;;;;1900881;74;21124;-66
2023/07/06 04:35:57;;;;;;;16.57;4.00;;;32.90;96.20;;;;;;1927933;73;20211;-67
2023/07/06 04:38:31;;;;;;;6.08;3.02;;;33.10;96.30;;;;;;1960292;71;21139;-69
2023/07/06 04:41:05;;;;;;;7.53;3.17;;;33.10;96.10;;;;;;1893721;75;21146;-67
2023/07/06 04:43:38;;;;;;;8.93;3.50;;;33.20;95.70;;;;;;1895771;74;21212;-70
2023/07/06 04:46:12;;;;;;;9.73;4.67;;;33.30;95.50;;;;;;1954691;73;21151;-69
2023/07/06 04:48:50;;;;;;;8.23;3.50;;;33.40;95.70;;;;;;1948448;73;21425;-67
2023/07/06 04:51:25;;;;;;;6.97;3.15;;;33.30;95.80;;;;;;1949162;72;21100;-69
2023/07/06 04:54:00;;;;;;;4.85;2.62;;;33.40;95.30;;;;;;1954685;72;21807;-69
2023/07/06 04:56:37;;;;;;;7.65;3.08;;;33.30;95.20;;;;;;1947986;72;21211;-70
2023/07/06 04:59:11;;;;;;;8.00;2.75;;;33.40;95.90;;;;;;1955721;72;21101;-68
2023/07/06 05:01:43;;;;;;;3.25;1.87;;;33.50;94.90;;;;;;1957024;72;21131;-67
2023/07/06 05:04:17;;;;;;;8.65;3.30;;;33.60;94.30;;;;;;1960247;72;21110;-67
2023/07/06 05:06:51;;;;;;;11.18;2.77;;;33.70;95.00;;;;;;1968260;72;21127;-70
2023/07/06 05:09:24;;;;;;;4.75;2.77;;;33.70;94.30;;;;;;1951867;72;21154;-67
2023/07/06 05:11:57;;;;;;;9.25;2.98;;;33.70;94.70;;;;;;1960054;72;21185;-67
2023/07/06 05:14:34;;;;;;;5.87;2.80;;;33.70;95.20;;;;;;1952699;73;21171;-69
2023/07/06 05:17:07;;;;;;;5.80;2.50;;;33.80;94.90;;;;;;1957689;73;21112;-67
2023/07/06 05:19:42;;;;;;;6.12;2.50;;;33.80;94.10;;;;;;1948032;72;21333;-68
2023/07/06 05:22:17;;;;;;;9.53;4.03;;;33.80;94.30;;;;;;1955077;72;21136;-68
2023/07/06 05:24:50;;;;;;;10.05;4.97;;;33.90;94.50;;;;;;1940549;73;21696;-67
2023/07/06 05:27:25;;;;;;;6.62;2.83;;;34.10;94.50;;;;;;1953300;72;21555;-68
2023/07/06 05:29:57;;;;;;;3.75;2.50;;;34.20;93.60;;;;;;1891677;74;21102;-68
2023/07/06 05:32:30;;;;;;;10.00;3.98;;;34.30;92.90;;;;;;1886867;74;21534;-68
2023/07/06 05:35:03;;;;;;;4.90;2.22;;;34.10;93.30;;;;;;1922078;73;21207;-67
2023/07/06 05:37:38;;;;;;;6.25;3.47;;;33.90;93.40;;;;;;1909356;74;21087;-68
2023/07/06 05:40:11;;;;;;;6.33;3.35;;;33.80;94.00;;;;;;1903528;74;21102;-68
2023/07/06 05:42:48;;;;;;;5.15;3.02;;;33.80;94.10;;;;;;1938061;72;21193;-69
2023/07/06 05:45:26;;;;;;;5.45;2.65;;;33.80;94.00;;;;;;1930647;73;21100;-69
2023/07/06 05:48:00;;;;;;;8.08;2.35;;;33.90;93.10;;;;;;1950517;72;21088;-67
2023/07/06 05:50:33;;;;;;;6.87;2.33;;;34.10;92.40;;;;;;1943948;72;21154;-69
2023/07/06 05:53:07;;;;;;;5.53;2.10;;;34.10;92.10;;;;;;1941667;72;21557;-69
2023/07/06 05:55:43;;;;;;;5.92;2.45;;;34.10;92.20;;;;;;1941287;72;21137;-68
2023/07/06 05:58:17;;;;;;;12.68;3.40;;;34.10;93.20;;;;;;1939652;72;21198;-69
2023/07/06 06:00:52;;;;;;;10.10;3.42;;;34.20;93.40;;;;;;1947175;73;21655;-68
2023/07/06 06:03:28;;;;;;;5.35;2.95;;;34.10;93.40;;;;;;1938864;72;21061;-67
2023/07/06 06:06:17;;;;;;;8.53;3.20;;;34.00;93.20;;;;;;1894412;74;21079;-68
2023/07/06 06:08:51;;;;;;;10.72;3.52;;;33.80;93.70;;;;;;1847105;76;21120;-70
2023/07/06 06:11:23;;;;;;;5.65;2.83;;;33.70;94.30;;;;;;1912925;75;21051;-67
2023/07/06 06:13:56;;;;;;;12.33;4.17;;;33.60;94.40;;;;;;1879515;75;21603;-69
2023/07/06 06:16:29;;;;;;;9.30;3.22;;;33.60;94.10;;;;;;1900873;74;21169;-69
2023/07/06 06:19:03;;;;;;;18.55;3.65;;;33.70;94.30;;;;;;1900859;74;21633;-70
2023/07/06 06:21:35;;;;;;;10.85;3.08;;;33.90;94.00;;;;;;1906001;73;21173;-70
2023/07/06 06:24:10;;;;;;;6.20;2.55;;;34.00;93.10;;;;;;1911678;75;21179;-69
2023/07/06 06:26:44;;;;;;;6.20;2.83;;;34.10;93.10;;;;;;1910693;75;21595;-67
2023/07/06 06:29:21;;;;;;;9.40;2.87;;;34.00;92.80;;;;;;1907385;74;21646;-69
2023/07/06 06:31:54;;;;;;;6.45;3.00;;;34.10;92.90;;;;;;1861529;76;21182;-67
2023/07/06 06:34:29;;;;;;;26.42;4.37;;;34.10;93.10;;;;;;1853943;77;21162;-67
2023/07/06 06:37:04;;;;;;;9.10;3.00;;;34.00;93.40;;;;;;1856727;76;21160;-67
2023/07/06 06:39:38;;;;;;;16.03;3.30;;;34.00;93.30;;;;;;1891853;74;21504;-67
2023/07/06 06:42:13;;;;;;;10.00;3.47;;;34.10;93.10;;;;;;1861082;76;21293;-67
2023/07/06 06:44:45;;;;;;;6.80;2.17;;;34.20;93.20;;;;;;1916396;74;21142;-74
2023/07/06 06:47:19;;;;;;;5.75;2.47;;;34.20;92.60;;;;;;1922649;73;21629;-69
2023/07/06 06:49:52;;;;;;;5.62;2.00;;;34.20;92.60;;;;;;1908624;73;21112;-68
2023/07/06 06:52:37;;;;;;;4.53;2.67;;;34.30;92.70;;;;;;1919415;73;21389;-67
2023/07/06 06:55:09;;;;;;;8.28;2.72;;;34.30;92.80;;;;;;1921634;73;21120;-67
2023/07/06 06:57:53;;;;;;;5.75;2.20;;;34.40;92.50;;;;;;1915700;73;21142;-67
2023/07/06 07:00:30;;;;;;;10.20;2.90;;;34.40;92.30;;;;;;1923625;73;21070;-67
2023/07/06 07:03:02;;;;;;;7.65;2.95;;;34.30;92.60;;;;;;1891400;74;21115;-68
2023/07/06 07:05:35;;;;;;;5.45;2.80;;;34.30;92.80;;;;;;1876785;74;21252;-68
2023/07/06 07:08:09;;;;;;;8.88;3.47;;;34.40;93.20;;;;;;1833279;75;21156;-66
2023/07/06 07:10:41;;;;;;;6.40;2.70;;;34.50;92.80;;;;;;1864417;75;21126;-68
2023/07/06 07:13:18;;;;;;;5.83;2.25;;;34.60;92.00;;;;;;1850258;76;21163;-68
2023/07/06 07:15:50;;;;;;;8.08;3.05;;;34.60;91.80;;;;;;1817798;77;21226;-67
2023/07/06 07:18:45;;;;;;;11.57;2.80;;;34.60;91.50;;;;;;1888663;74;21753;-68
2023/07/06 07:21:33;;;;;;;;;;;34.50;91.30;;;;;;1851421;77;21622;-68
2023/07/06 07:24:16;;;;;;;7.78;3.37;;;34.30;92.00;;;;;;1847375;76;20456;-68
2023/07/06 07:26:52;;;;;;;4.97;2.55;;;34.10;92.70;;;;;;1847587;76;21182;-67
2023/07/06 07:29:26;;;;;;;7.22;3.05;;;34.00;92.40;;;;;;1853076;77;21644;-68
2023/07/06 07:31:58;;;;;;;3.37;2.30;;;34.00;93.00;;;;;;1852843;77;21667;-67
2023/07/06 07:34:40;;;;;;;5.90;2.67;;;34.00;93.00;;;;;;1858027;77;21138;-66
2023/07/06 07:37:15;;;;;;;40.55;7.00;;;34.00;93.50;;;;;;1852040;77;21165;-68
2023/07/06 07:40:05;;;;;;;17.48;4.47;;;34.00;93.60;;;;;;1845836;77;21199;-68
2023/07/06 07:42:46;;;;;;;5.75;3.40;;;34.00;93.60;;;;;;1852475;76;21198;-68
2023/07/06 07:45:18;;;;;;;9.98;3.17;;;34.00;93.60;;;;;;1850020;77;21117;-68
2023/07/06 07:47:51;;;;;;;8.75;3.17;;;34.00;93.60;;;;;;1850843;77;21149;-68
2023/07/06 07:50:32;;;;;;;8.10;3.40;;;34.10;93.40;;;;;;1853825;77;21497;-68
2023/07/06 07:53:03;;;;;;;9.28;3.67;;;34.10;93.70;;;;;;1851827;77;21685;-67
2023/07/06 07:55:37;;;;;;;8.05;3.67;;;34.10;93.70;;;;;;1852303;76;21604;-68
2023/07/06 07:58:10;;;;;;;5.92;3.12;;;34.10;93.90;;;;;;1850456;76;21135;-68
2023/07/06 08:01:01;;;;;;;6.78;2.98;;;34.10;93.80;;;;;;1852384;76;21599;-69
2023/07/06 08:03:33;;;;;;;5.28;3.17;;;34.00;93.80;;;;;;1855326;76;21152;-69
2023/07/06 08:06:08;;;;;;;6.12;3.40;;;34.00;93.20;;;;;;1865680;76;21563;-70
2023/07/06 08:08:58;;;;;;;8.98;3.75;;;33.90;93.60;;;;;;1883524;76;21230;-69
2023/07/06 08:11:46;;;;;;;5.00;2.65;;;33.90;93.70;;;;;;1920854;74;21574;-67
2023/07/06 08:14:34;;;;;;;5.65;2.90;;;34.00;93.30;;;;;;1914419;73;21603;-69
2023/07/06 08:17:23;;;;;;;5.50;3.10;;;34.00;93.20;;;;;;1919765;73;21631;-69
2023/07/06 08:19:54;;;;;;;4.33;2.87;;;34.10;93.30;;;;;;1908970;73;21187;-68
2023/07/06 08:22:32;;;;;;;5.35;2.55;;;34.10;93.40;;;;;;1911925;73;21085;-69
2023/07/06 08:25:09;;;;;;;7.17;3.15;;;34.10;93.20;;;;;;1921337;73;21226;-72
2023/07/06 08:27:46;;;;;;;5.62;2.80;;;34.10;92.80;;;;;;1916668;73;21128;-68
2023/07/06 08:30:24;;;;;;;4.08;2.60;;;34.10;92.90;;;;;;1914559;73;21177;-69
2023/07/06 08:33:07;;;;;;;4.55;2.65;;;34.00;92.90;;;;;;1923736;73;21043;-69
2023/07/06 08:35:57;;;;;;;6.40;3.05;;;34.00;93.00;;;;;;1871735;74;21134;-68
2023/07/06 08:38:33;;;;;;;5.20;2.52;;;34.00;93.70;;;;;;1861203;76;21170;-75
2023/07/06 08:41:13;;;;;;;7.37;3.37;;;33.80;93.30;;;;;;1919922;73;21073;-69
2023/07/06 08:43:51;;;;;;;5.25;3.00;;;33.70;93.40;;;;;;1911299;74;21116;-68
2023/07/06 08:46:25;;;;;;;6.30;2.87;;;33.70;93.40;;;;;;1923947;73;21204;-72
2023/07/06 08:49:00;;;;;;;5.17;2.60;;;33.70;93.40;;;;;;1896531;74;21146;-68
2023/07/06 08:51:40;;;;;;;5.60;2.87;;;33.60;93.40;;;;;;1899768;74;21130;-70
2023/07/06 08:54:21;;;;;;;5.80;2.45;;;33.60;93.60;;;;;;1899646;74;21109;-69
2023/07/06 08:57:05;;;;;;;5.62;2.87;;;33.70;93.60;;;;;;1908010;74;21164;-68
2023/07/06 08:59:43;;;;;;;5.15;3.00;;;33.60;93.30;;;;;;1885846;74;21126;-69
2023/07/06 09:02:18;;;;;;;4.27;2.67;;;33.70;93.60;;;;;;1921949;73;21144;-71
2023/07/06 09:04:56;;;;;;;4.80;3.00;;;33.60;93.70;;;;;;1917719;73;21133;-69
2023/07/06 09:07:30;;;;;;;;;;;33.60;93.90;;;;;;1918741;73;21151;-73
2023/07/06 09:10:28;;;;;;;18.23;3.65;;;33.60;93.80;;;;;;1908011;74;20217;-69
2023/07/06 09:13:01;;;;;;;;;;;33.60;92.20;;;;;;1895398;73;21601;-69
2023/07/06 09:15:44;;;;;;;5.17;2.80;;;33.70;92.60;;;;;;1901519;74;20188;-68
2023/07/06 09:18:22;;;;;;;22.20;5.42;;;33.60;92.20;;;;;;1913193;73;21300;-69
2023/07/06 09:21:11;;;;;;;4.65;2.22;;;33.60;92.50;;;;;;1904402;74;21726;-68
2023/07/06 09:24:03;;;;;;;5.62;2.20;;;33.70;92.00;;;;;;1901120;74;21165;-68
2023/07/06 09:26:38;;;;;;;6.33;2.37;;;33.60;91.90;;;;;;1902279;74;21248;-68
2023/07/06 09:29:25;;;;;;;8.73;4.00;;;33.60;91.90;;;;;;1899957;74;21565;-69
2023/07/06 09:32:19;;;;;;;5.05;2.37;;;33.60;92.50;;;;;;1916340;73;21143;-69
2023/07/06 09:34:59;;;;;;;5.60;2.50;;;33.60;92.80;;;;;;1927456;73;21185;-68
2023/07/06 09:37:40;;;;;;;10.68;2.40;;;33.50;92.90;;;;;;1931952;73;21581;-68
2023/07/06 09:40:15;;;;;;;5.83;3.10;;;33.40;93.10;;;;;;1932361;73;21175;-69
2023/07/06 09:42:50;;;;;;;7.22;4.80;;;33.30;93.10;;;;;;1923326;73;21168;-66
2023/07/06 09:45:30;;;;;;;5.90;3.22;;;33.30;93.40;;;;;;1917496;74;21131;-68
2023/07/06 09:48:07;;;;;;;6.05;2.90;;;33.20;93.50;;;;;;1927505;73;21620;-68
2023/07/06 09:51:06;;;;;;;8.40;3.67;;;33.20;93.90;;;;;;1929533;73;21213;-68
2023/07/06 09:53:51;;;;;;;14.00;4.60;;;33.20;93.90;;;;;;1897682;75;22324;-69
2023/07/06 09:56:28;;;;;;;6.40;2.52;;;33.20;93.90;;;;;;1944983;73;21185;-67
2023/07/06 09:59:03;;;;;;;3.92;2.67;;;33.10;93.40;;;;;;1944523;73;21132;-67
2023/07/06 10:01:53;;;;;;;4.75;2.90;;;33.10;93.70;;;;;;1934604;73;21199;-70
2023/07/06 10:04:27;;;;;;;8.98;4.47;;;33.00;93.90;;;;;;1936812;73;21136;-69
2023/07/06 10:07:09;;;;;;;8.15;4.35;;;33.00;94.20;;;;;;1938703;73;21165;-69
2023/07/06 10:10:15;;;;;;;10.55;4.25;;;33.00;94.20;;;;;;1896203;74;21624;-68
2023/07/06 10:12:58;;;;;;;9.55;3.80;;;;;;;;;;1916533;73;21162;-68
2023/07/06 10:16:08;;;;;;;8.85;4.10;;;33.00;93.60;;;;;;1914050;73;21245;-70
2023/07/06 10:18:50;;;;;;;6.65;3.25;;;33.00;94.20;;;;;;1939507;73;21524;-69
2023/07/06 10:21:37;;;;;;;6.75;3.87;;;33.00;94.20;;;;;;1929299;74;21198;-69
2023/07/06 10:24:38;;;;;;;11.43;3.92;;;33.00;93.90;;;;;;1924145;73;21131;-68
2023/07/06 10:27:15;;;;;;;9.90;4.58;;;33.00;93.80;;;;;;1926747;74;21584;-67
2023/07/06 10:29:54;;;;;;;8.20;3.42;;;33.00;93.80;;;;;;1901862;75;21141;-68
2023/07/06 10:32:34;;;;;;;9.45;2.75;;;33.00;93.50;;;;;;1886930;74;21106;-81
2023/07/06 10:35:15;;;;;;;14.78;3.98;;;32.90;93.30;;;;;;1928179;74;21116;-79
2023/07/06 10:38:00;;;;;;;12.75;4.25;;;32.90;93.10;;;;;;1949230;73;21145;-79
2023/07/06 10:40:42;;;;;;;14.78;2.87;;;32.90;93.20;;;;;;1918415;74;21201;-81
2023/07/06 10:43:23;;;;;;;32.58;6.20;;;32.80;93.40;;;;;;1936896;73;21451;-80
2023/07/06 10:46:33;;;;;;;11.22;2.70;;;32.80;93.60;;;;;;1938240;73;21186;-77
2023/07/06 10:49:23;;;;;;;13.68;3.50;;;32.80;93.70;;;;;;1892430;75;21147;-79
2023/07/06 10:52:10;;;;;;;8.20;3.15;;;32.70;93.90;;;;;;1894401;75;21116;-80
2023/07/06 10:54:52;;;;;;;;;;;32.70;93.90;;;;;;1936465;73;21183;-81
2023/07/06 10:57:37;;;;;;;14.07;2.40;;;32.60;94.50;;;;;;1929067;73;20241;-81
2023/07/06 11:00:21;;;;;;;11.38;2.58;;;32.60;94.10;;;;;;1935181;74;21115;-79
2023/07/06 11:03:04;;;;;;;15.68;3.45;;;32.60;94.00;;;;;;1935111;73;21641;-82
2023/07/06 11:05:43;;;;;;;13.13;3.85;;;32.50;94.20;;;;;;1945626;73;21063;-78
2023/07/06 11:08:42;;;;;;;17.50;2.42;;;32.50;94.20;;;;;;1951142;72;21125;-80
2023/07/06 11:11:21;;;;;;;11.93;3.62;;;32.50;94.30;;;;;;1875779;74;21202;-80
2023/07/06 11:14:35;;;;;;;7.00;2.10;;;32.40;94.40;;;;;;1920903;73;21147;-80
2023/07/06 11:17:40;;;;;;;6.97;2.33;;;32.40;94.40;;;;;;1902134;75;21198;-81
2023/07/06 11:20:23;;;;;;;9.93;2.50;;;32.40;94.50;;;;;;1896285;74;21181;-79
2023/07/06 11:23:04;;;;;;;5.10;2.30;;;32.40;94.70;;;;;;1887992;74;21138;-80
2023/07/06 11:25:57;;;;;;;4.30;1.77;;;32.40;94.50;;;;;;1891404;74;21110;-78
2023/07/06 11:28:44;;;;;;;6.87;1.77;;;32.40;94.60;;;;;;1897240;75;21130;-80
2023/07/06 11:31:44;;;;;;;7.75;2.30;;;32.30;94.60;;;;;;1941539;73;21088;-81
2023/07/06 11:34:30;;;;;;;8.23;3.17;;;32.30;94.80;;;;;;1946692;73;21119;-82
2023/07/06 11:37:26;;;;;;;9.90;4.05;;;32.30;95.00;;;;;;1932514;73;21556;-78
2023/07/06 11:40:20;;;;;;;7.30;4.00;;;32.30;95.60;;;;;;1932799;73;21510;-81
2023/07/06 11:43:26;;;;;;;9.33;4.75;;;32.20;95.80;;;;;;1928371;73;21144;-82
2023/07/06 11:46:16;;;;;;;7.12;3.70;;;32.10;96.00;;;;;;1930070;73;21118;-81
2023/07/06 11:49:02;;;;;;;12.07;4.83;;;32.10;96.10;;;;;;1924177;73;21139;-78
2023/07/06 11:51:59;;;;;;;10.50;6.15;;;32.00;96.40;;;;;;1888950;74;21145;-77
2023/07/06 11:54:54;;;;;;;10.28;5.47;;;31.90;96.80;;;;;;1949232;73;21132;-77
2023/07/06 11:57:48;;;;;;;7.87;4.75;;;31.90;97.20;;;;;;1950023;73;21436;-80
2023/07/06 12:00:48;;;;;;;8.55;4.30;;;31.70;97.40;;;;;;1955759;71;21095;-80
2023/07/06 12:03:26;;;;;;;12.05;5.47;;;31.70;97.70;;;;;;1954946;72;21153;-79
2023/07/06 12:06:04;;;;;;;10.50;5.67;;;31.60;98.00;;;;;;1894305;74;21145;-79
2023/07/06 12:08:39;;;;;;;10.38;4.67;;;31.60;98.20;;;;;;1936134;71;21131;-81
2023/07/06 12:11:28;;;;;;;11.38;4.97;;;31.50;98.30;;;;;;1891345;74;21076;-81
2023/07/06 12:14:21;;;;;;;10.58;5.35;;;31.40;98.60;;;;;;1935968;73;21176;-82
2023/07/06 12:16:59;;;;;;;9.03;5.12;;;31.40;98.70;;;;;;1930775;74;21189;-78
2023/07/06 12:19:37;;;;;;;8.70;4.75;;;31.30;99.00;;;;;;1937964;73;21135;-79
2023/07/06 12:22:24;;;;;;;8.45;4.35;;;31.30;99.10;;;;;;1936606;73;21170;-78
2023/07/06 12:25:12;;;;;;;12.73;4.90;;;31.20;99.10;;;;;;1942731;73;21053;-80
2023/07/06 12:27:44;;;;;;;8.60;5.05;;;31.20;99.20;;;;;;1939243;73;21147;-82
2023/07/06 12:30:19;;;;;;;9.28;4.80;;;31.10;99.50;;;;;;1935178;73;21087;-81
2023/07/06 12:32:58;;;;;;;6.67;4.20;;;31.20;99.50;;;;;;1894101;75;21120;-81
2023/07/06 12:35:49;;;;;;;6.42;4.47;;;31.10;99.60;;;;;;1932515;73;21579;-82
2023/07/06 12:38:26;;;;;;;7.70;4.00;;;31.10;99.70;;;;;;1934262;73;21138;-78
2023/07/06 12:41:21;;;;;;;6.03;3.72;;;31.00;99.50;;;;;;1946584;73;21124;-81
2023/07/06 12:44:07;;;;;;;6.47;3.65;;;31.00;99.50;;;;;;1925524;73;21125;-80
2023/07/06 12:46:56;;;;;;;10.55;4.20;;;31.00;99.40;;;;;;1936145;73;21242;-81
2023/07/06 12:49:39;;;;;;;8.73;4.75;;;31.00;99.40;;;;;;1937234;73;21163;-78
2023/07/06 12:52:23;;;;;;;6.53;3.10;;;31.00;99.50;;;;;;1932695;73;21103;-78
2023/07/06 12:54:58;;;;;;;7.67;3.45;;;31.00;99.50;;;;;;1930319;73;21156;-78
2023/07/06 12:57:35;;;;;;;6.73;3.50;;;31.00;99.40;;;;;;1930602;73;21107;-78
2023/07/06 13:00:27;;;;;;;9.35;3.45;;;31.00;99.40;;;;;;1931082;73;21112;-77
2023/07/06 13:03:04;;;;;;;6.33;3.90;;;30.90;99.40;;;;;;1897802;73;21076;-80
2023/07/06 13:05:40;;;;;;;7.65;4.67;;;30.90;99.40;;;;;;1931098;73;21111;-79
2023/07/06 13:08:15;;;;;;;6.90;4.00;;;31.00;99.50;;;;;;1898603;75;21148;-79
2023/07/06 13:11:04;;;;;;;11.97;4.40;;;30.90;99.50;;;;;;1869046;75;21170;-79
2023/07/06 13:13:43;;;;;;;14.75;5.10;;;31.00;99.60;;;;;;1902816;75;21056;-79
2023/07/06 13:16:20;;;;;;;8.90;4.17;;;30.90;99.70;;;;;;1923220;73;21068;-77
2023/07/06 13:19:17;;;;;;;6.42;3.65;;;31.00;99.70;;;;;;1934238;73;21131;-81
2023/07/06 13:22:12;;;;;;;9.18;4.35;;;30.90;99.70;;;;;;1916721;73;21107;-80
2023/07/06 13:24:49;;;;;;;9.83;4.20;;;30.90;99.70;;;;;;1936153;73;21111;-80
2023/07/06 13:27:32;;;;;;;12.40;4.78;;;30.90;99.80;;;;;;1933791;73;21656;-78
2023/07/06 13:30:11;;;;;;;7.25;4.42;;;30.90;99.90;;;;;;1908990;73;21173;-78
2023/07/06 13:32:48;;;;;;;10.10;4.40;;;30.90;99.90;;;;;;1889888;74;21181;-81
2023/07/06 13:35:26;;;;;;;9.20;4.53;;;30.90;99.90;;;;;;1901029;74;21727;-78
2023/07/06 13:38:07;;;;;;;9.23;5.12;;;30.90;99.90;;;;;;1914046;73;21123;-80
2023/07/06 13:40:41;;;;;;;9.00;5.83;;;30.90;99.90;;;;;;1925463;73;21060;-80
2023/07/06 13:43:24;;;;;;;11.95;5.85;;;30.90;99.90;;;;;;1938520;73;21059;-81
2023/07/06 13:46:04;;;;;;;9.58;5.65;;;30.90;99.90;;;;;;1936337;73;21692;-79
2023/07/06 13:48:43;;;;;;;11.48;5.45;;;30.90;99.90;;;;;;1930911;74;21201;-78